createdAt,value
2022-12-25T09:06:08.982Z,55.53
2022-12-25T09:08:41.023Z,46.45
2022-12-25T09:11:13.763Z,57.47
2022-12-25T09:13:42.019Z,55.48
2022-12-25T09:16:12.207Z,41.89
2022-12-25T09:18:40.662Z,34.30
2022-12-25T09:21:11.756Z,33.52
2022-12-25T09:23:39.713Z,30.71
2022-12-25T09:26:10.501Z,32.62
2022-12-25T09:28:37.978Z,30.34
2022-12-25T09:31:06.011Z,34.44
2022-12-25T09:33:33.894Z,44.96
2022-12-25T09:36:04.504Z,46.99
2022-12-25T09:38:32.572Z,49.94
2022-12-25T09:41:34.140Z,55.18
2022-12-25T09:44:10.368Z,57.45
2022-12-25T09:46:50.345Z,56.65
2022-12-25T09:49:24.378Z,58.38
2022-12-25T09:51:58.467Z,56.12
2022-12-25T09:54:39.576Z,51.12
2022-12-25T09:57:11.480Z,44.53
2022-12-25T09:59:39.547Z,43.38
2022-12-25T10:02:44.517Z,43.78
2022-12-25T10:05:41.504Z,41.78
2022-12-25T10:08:17.844Z,41.52
2022-12-25T10:11:13.975Z,34.86
2022-12-25T10:14:20.121Z,37.10
2022-12-25T10:16:47.594Z,34.39
2022-12-25T10:19:40.419Z,38.12
2022-12-25T10:22:27.555Z,35.28
2022-12-25T10:24:57.798Z,32.92
2022-12-25T10:27:35.186Z,31.74
2022-12-25T10:30:17.414Z,30.35
2022-12-25T10:32:46.350Z,29.82
2022-12-25T10:35:17.490Z,29.10
2022-12-25T10:37:48.735Z,28.71
2022-12-25T10:40:23.141Z,28.75
2022-12-25T10:42:59.378Z,29.07
2022-12-25T10:45:26.864Z,33.82
2022-12-25T10:48:07.455Z,29.77
2022-12-25T10:50:43.177Z,29.08
2022-12-25T10:53:19.409Z,30.43
2022-12-25T10:56:05.428Z,32.85
2022-12-25T10:58:34.094Z,33.54
2022-12-25T11:01:05.197Z,31.20
2022-12-25T11:03:47.512Z,28.44
2022-12-25T11:06:26.877Z,29.39
2022-12-25T11:08:59.761Z,29.32
2022-12-25T11:11:29.464Z,31.07
2022-12-25T11:14:00.355Z,27.25
2022-12-25T11:16:35.892Z,28.73
2022-12-25T11:19:26.417Z,28.76
2022-12-25T11:21:56.584Z,31.75
2022-12-25T11:24:29.822Z,32.26
2022-12-25T11:27:00.005Z,30.14
2022-12-25T11:29:36.480Z,29.38
2022-12-25T11:32:07.337Z,29.23
2022-12-25T11:34:43.851Z,29.60
2022-12-25T11:37:15.747Z,32.09
2022-12-25T11:39:43.533Z,32.29
2022-12-25T11:42:29.717Z,30.53
2022-12-25T11:45:06.176Z,29.07
2022-12-25T11:47:51.497Z,26.45
2022-12-25T11:50:38.360Z,27.44
2022-12-25T11:53:15.012Z,26.24
2022-12-25T11:55:57.154Z,26.32
2022-12-25T11:58:41.627Z,27.11
2022-12-25T12:01:22.141Z,26.63
2022-12-25T12:03:49.677Z,25.96
2022-12-25T12:06:29.825Z,28.95
2022-12-25T12:09:09.160Z,30.05
2022-12-25T12:11:44.049Z,27.36
2022-12-25T12:14:46.850Z,29.03
2022-12-25T12:17:17.327Z,32.83
2022-12-25T12:19:46.497Z,36.89
2022-12-25T12:22:19.833Z,36.71
2022-12-25T12:24:58.532Z,38.58
2022-12-25T12:27:36.523Z,36.86
2022-12-25T12:30:06.867Z,35.68
2022-12-25T12:32:34.427Z,33.83
2022-12-25T12:35:22.857Z,31.91
2022-12-25T12:37:55.648Z,28.63
2022-12-25T12:40:36.421Z,32.05
2022-12-25T12:43:05.438Z,35.21
2022-12-25T12:45:36.432Z,37.73
2022-12-25T12:48:17.123Z,37.79
2022-12-25T12:50:44.961Z,38.76
2022-12-25T12:53:24.495Z,42.73
2022-12-25T12:55:53.214Z,45.05
2022-12-25T12:58:35.634Z,46.34
2022-12-25T13:01:30.337Z,47.31
2022-12-25T13:04:09.881Z,48.84
2022-12-25T13:06:46.161Z,49.98
2022-12-25T13:09:34.863Z,49.71
2022-12-25T13:12:08.195Z,49.40
2022-12-25T13:14:37.986Z,50.33
2022-12-25T13:17:07.988Z,52.38
2022-12-25T13:19:37.447Z,52.00
2022-12-25T13:22:06.765Z,48.94
2022-12-25T13:24:36.560Z,43.53
2022-12-25T13:27:23.021Z,38.57
2022-12-25T13:29:50.971Z,39.27
2022-12-25T13:32:24.302Z,37.45
2022-12-25T13:34:52.881Z,37.83
2022-12-25T13:37:24.952Z,43.55
2022-12-25T13:39:58.211Z,44.94
2022-12-25T13:42:32.599Z,41.15
2022-12-25T13:45:08.172Z,40.32
2022-12-25T13:47:38.233Z,42.22
2022-12-25T13:50:20.546Z,42.82
2022-12-25T13:52:48.259Z,45.44
2022-12-25T13:55:21.418Z,45.57
2022-12-25T13:57:55.245Z,46.59
2022-12-25T14:00:38.814Z,48.79
2022-12-25T14:03:15.159Z,50.42
2022-12-25T14:05:43.663Z,50.35
2022-12-25T14:08:23.709Z,51.14
2022-12-25T14:10:52.994Z,52.36
2022-12-25T14:13:24.873Z,54.58
2022-12-25T14:15:53.599Z,55.12
2022-12-25T14:18:23.031Z,55.58
2022-12-25T14:21:35.300Z,56.01
2022-12-25T14:24:03.004Z,57.20
2022-12-25T14:26:33.450Z,57.53
2022-12-25T14:29:15.699Z,58.47
2022-12-25T14:31:46.304Z,58.82
2022-12-25T14:34:27.513Z,59.08
2022-12-25T14:36:55.255Z,59.77
2022-12-25T14:39:29.988Z,59.97
2022-12-25T14:41:57.895Z,60.71
2022-12-25T14:44:40.295Z,61.18
2022-12-25T14:47:10.496Z,60.77
2022-12-25T14:49:39.238Z,61.08
2022-12-25T14:52:18.585Z,62.35
2022-12-25T14:55:00.211Z,62.70
2022-12-25T14:57:37.919Z,63.66
2022-12-25T15:00:20.520Z,63.86
2022-12-25T15:02:51.545Z,64.22
2022-12-25T15:05:34.602Z,63.89
2022-12-25T15:08:13.988Z,63.94
2022-12-25T15:13:30.809Z,65.48
2022-12-25T15:16:00.886Z,65.94
2022-12-25T15:18:34.476Z,66.12
2022-12-25T15:21:02.701Z,65.79
2022-12-25T15:23:30.243Z,67.08
2022-12-25T15:25:57.827Z,66.70
2022-12-25T15:28:25.359Z,66.55
2022-12-25T15:30:52.947Z,67.81
2022-12-25T15:33:20.514Z,69.52
2022-12-25T15:35:48.917Z,70.28
2022-12-25T15:38:16.495Z,71.43
2022-12-25T15:40:44.188Z,71.05
2022-12-25T15:43:39.326Z,70.84
2022-12-25T15:46:02.537Z,70.05
2022-12-25T15:48:30.163Z,69.41
2022-12-25T15:50:57.724Z,70.14
2022-12-25T15:53:26.934Z,69.82
2022-12-25T15:55:54.623Z,70.42
2022-12-25T15:58:23.467Z,69.98
2022-12-25T16:00:50.952Z,69.67
2022-12-25T16:03:18.458Z,69.60
2022-12-25T16:05:46.047Z,69.08
2022-12-25T16:08:13.580Z,68.80
2022-12-25T16:10:41.082Z,68.24
2022-12-25T16:13:08.623Z,67.79
2022-12-25T16:15:36.181Z,67.04
2022-12-25T16:18:03.955Z,66.50
2022-12-25T16:20:32.319Z,66.39
2022-12-25T16:22:59.841Z,66.20
2022-12-25T16:25:27.332Z,66.53
2022-12-25T16:27:54.878Z,66.27
2022-12-25T16:30:22.439Z,66.80
2022-12-25T16:32:50.447Z,67.09
2022-12-25T16:35:17.990Z,67.03
2022-12-25T16:37:45.557Z,66.87
2022-12-25T16:40:13.213Z,66.96
2022-12-25T16:42:40.713Z,67.44
2022-12-25T16:45:08.504Z,67.00
2022-12-25T16:47:36.463Z,68.61
2022-12-25T16:50:06.749Z,69.55
2022-12-25T16:52:35.151Z,69.54
2022-12-25T16:55:04.337Z,70.02
2022-12-25T16:57:33.112Z,70.37
2022-12-25T17:00:00.980Z,70.45
2022-12-25T17:02:28.527Z,71.49
2022-12-25T17:04:56.159Z,71.31
2022-12-25T17:07:23.667Z,71.30
2022-12-25T17:09:51.150Z,71.80
2022-12-25T17:12:18.752Z,71.55
2022-12-25T17:14:46.175Z,71.51
2022-12-25T17:17:13.643Z,71.82
2022-12-25T17:19:41.644Z,72.00
2022-12-25T17:22:09.618Z,71.78
2022-12-25T17:24:39.943Z,72.10
2022-12-25T17:27:09.356Z,72.41
2022-12-25T17:29:39.818Z,72.59
2022-12-25T17:32:10.544Z,72.60
2022-12-25T17:34:38.519Z,72.27
2022-12-25T17:37:06.367Z,73.02
2022-12-25T17:39:34.008Z,73.11
2022-12-25T17:42:01.463Z,73.67
2022-12-25T17:44:29.028Z,74.35
2022-12-25T17:46:56.587Z,74.73
2022-12-25T17:49:24.343Z,74.52
2022-12-25T17:51:53.487Z,74.81
2022-12-25T17:54:21.053Z,75.00
2022-12-25T17:56:49.447Z,75.43
2022-12-25T17:59:18.809Z,74.83
2022-12-25T18:01:48.182Z,75.33
2022-12-25T18:04:15.940Z,75.50
2022-12-25T18:06:43.605Z,75.38
2022-12-25T18:09:11.951Z,74.93
2022-12-25T18:11:41.779Z,75.52
2022-12-25T18:14:13.185Z,75.62
2022-12-25T18:16:43.397Z,76.55
2022-12-25T18:19:11.920Z,76.42
2022-12-25T18:21:39.582Z,76.23
2022-12-25T18:24:08.410Z,76.84
2022-12-25T18:26:36.046Z,76.52
2022-12-25T18:29:03.921Z,76.56
2022-12-25T18:31:31.482Z,76.51
2022-12-25T18:33:59.936Z,76.44
2022-12-25T18:36:28.891Z,76.05
2022-12-25T18:38:57.120Z,75.98
2022-12-25T18:41:25.427Z,75.25
2022-12-25T18:43:55.696Z,74.65
2022-12-25T18:46:25.884Z,73.98
2022-12-25T18:48:56.864Z,73.46
2022-12-25T18:51:26.734Z,73.16
2022-12-25T18:53:58.746Z,73.04
2022-12-25T18:56:26.260Z,73.16
2022-12-25T18:58:53.965Z,72.78
2022-12-25T19:01:23.718Z,72.57
2022-12-25T19:03:57.170Z,72.87
2022-12-25T19:06:32.761Z,73.20
2022-12-25T19:09:00.552Z,73.58
2022-12-25T19:11:28.131Z,73.92
2022-12-25T19:13:56.206Z,74.26
2022-12-25T19:16:23.949Z,73.76
2022-12-25T19:18:51.515Z,73.98
2022-12-25T19:21:19.008Z,74.23
2022-12-25T19:23:46.622Z,73.38
2022-12-25T19:26:14.221Z,73.52
2022-12-25T19:28:41.863Z,73.50
2022-12-25T19:31:10.521Z,73.38
2022-12-25T19:33:41.079Z,73.40
2022-12-25T19:36:13.393Z,73.30
2022-12-25T19:38:41.537Z,73.83
2022-12-25T19:41:12.665Z,74.32
2022-12-25T19:43:42.341Z,74.40
2022-12-25T19:46:31.256Z,73.93
2022-12-25T19:49:04.119Z,74.20
2022-12-25T19:51:37.868Z,74.18
2022-12-25T19:54:06.223Z,75.16
2022-12-25T19:56:34.681Z,75.08
2022-12-25T19:59:02.703Z,75.06
2022-12-25T20:01:30.936Z,75.57
2022-12-25T20:03:58.891Z,75.92
2022-12-25T20:06:29.636Z,75.00
2022-12-25T20:09:01.670Z,75.20
2022-12-25T20:11:31.419Z,74.98
2022-12-25T20:13:59.254Z,75.48
2022-12-25T20:16:27.523Z,75.39
2022-12-25T20:18:56.568Z,75.03
2022-12-25T20:21:27.271Z,75.24
2022-12-25T20:23:55.633Z,75.50
2022-12-25T20:26:30.413Z,75.16
2022-12-25T20:29:07.079Z,75.23
2022-12-25T20:31:35.606Z,75.62
2022-12-25T20:34:08.571Z,75.82
2022-12-25T20:36:37.967Z,75.28
2022-12-25T20:39:09.494Z,75.36
2022-12-25T20:41:38.302Z,75.72
2022-12-25T20:44:08.484Z,75.42
2022-12-25T20:46:36.715Z,74.84
2022-12-25T20:49:04.358Z,75.05
2022-12-25T20:51:31.966Z,74.88
2022-12-25T20:53:59.583Z,74.65
2022-12-25T20:56:27.448Z,74.40
2022-12-25T20:58:56.965Z,73.84
2022-12-25T21:01:25.237Z,74.11
2022-12-25T21:03:53.448Z,74.53
2022-12-25T21:06:22.056Z,74.43
2022-12-25T21:08:49.739Z,74.83
2022-12-25T21:11:18.110Z,74.23
2022-12-25T21:13:47.021Z,74.68
2022-12-25T21:16:20.042Z,74.64
2022-12-25T21:18:50.059Z,74.84
2022-12-25T21:21:18.581Z,74.87
2022-12-25T21:23:46.689Z,75.22
2022-12-25T21:26:23.987Z,75.00
2022-12-25T21:28:54.651Z,74.39
2022-12-25T21:31:23.909Z,75.32
2022-12-25T21:33:53.004Z,75.12
2022-12-25T21:36:24.435Z,75.35
2022-12-25T21:38:56.717Z,75.54
2022-12-25T21:41:25.293Z,75.74
2022-12-25T21:43:53.013Z,75.52
2022-12-25T21:46:21.263Z,75.63
2022-12-25T21:48:48.987Z,76.44
2022-12-25T21:51:37.423Z,76.02
2022-12-25T21:54:06.216Z,75.64
2022-12-25T21:56:41.364Z,75.90
2022-12-25T21:59:13.349Z,75.83
2022-12-25T22:01:41.067Z,76.21
2022-12-25T22:04:09.891Z,75.91
2022-12-25T22:06:56.238Z,76.16
2022-12-25T22:09:24.491Z,75.73
2022-12-25T22:12:11.040Z,75.43
2022-12-25T22:14:54.290Z,75.94
2022-12-25T22:17:50.611Z,76.47
2022-12-25T22:20:23.345Z,76.34
2022-12-25T22:22:51.570Z,76.18
2022-12-25T22:25:20.249Z,76.24
2022-12-25T22:27:48.675Z,76.38
2022-12-25T22:30:19.660Z,76.42
2022-12-25T22:32:48.109Z,75.95
2022-12-25T22:35:16.959Z,76.08
2022-12-25T22:37:45.129Z,75.57
2022-12-25T22:40:17.373Z,76.04
2022-12-25T22:42:44.948Z,76.28
2022-12-25T22:45:16.441Z,75.79
2022-12-25T22:47:44.048Z,75.34
2022-12-25T22:50:14.834Z,75.56
2022-12-25T22:52:43.150Z,75.91
2022-12-25T22:55:10.947Z,75.72
2022-12-25T22:57:38.637Z,75.53
2022-12-25T23:00:08.873Z,76.10
2022-12-25T23:02:36.622Z,76.13
2022-12-25T23:05:04.687Z,75.76
2022-12-25T23:07:32.231Z,75.82
2022-12-25T23:09:59.808Z,76.22
2022-12-25T23:12:45.713Z,75.99
2022-12-25T23:15:13.311Z,76.26
2022-12-25T23:18:19.512Z,75.82
2022-12-25T23:21:05.665Z,75.25
2022-12-25T23:23:51.532Z,75.07
2022-12-25T23:26:20.987Z,75.30
2022-12-25T23:29:06.757Z,74.96
2022-12-25T23:31:38.119Z,75.79
2022-12-25T23:34:06.691Z,75.56
2022-12-25T23:36:34.299Z,75.51
2022-12-25T23:39:08.922Z,75.46
2022-12-25T23:41:39.315Z,76.02
2022-12-25T23:44:08.074Z,76.20
2022-12-25T23:46:35.612Z,76.70
2022-12-25T23:49:03.458Z,77.17
2022-12-25T23:51:31.603Z,76.79
2022-12-25T23:53:59.194Z,76.30
2022-12-25T23:56:26.786Z,76.79
2022-12-25T23:58:54.416Z,76.79
